Thayer, IL (62689)

4:02 PM CDT on September 01, 2015 (GMT -0500)
Royell Weather Station | | Change Station
CLOSE
Current Station
Personal Weather Station
Location: Virden, IL
Elevation: 676 ft
Nearby Weather Stations

Elev 676 ft 39.50 °N, 89.77 °W | Updated 1 minute ago

Partly Cloudy
Partly Cloudy
91.6 °F
Feels Like 100 °F
N
7.0
Wind Variable Wind from SW
Gusts 15.0 mph

Today
High -- | Low -- °F
--% Chance of Precip.
Yesterday
High -- | Low -- °F
Precip. -- in
6:27 AM 7:30 PM
Waning Gibbous, 86% visible
Pressure 30.01 in
Visibility 10.0 miles
Clouds Few 6500 ft
Scattered Clouds 9000 ft
Heat Index 100 °F
Dew Point 73 °F
Humidity 54%
Rainfall 0.00 in
Snow Depth Not available.
UV 4 out of 12
Pollen 10.70 out of 12
Air Quality Not available.
Flu Activity Not available.
METAR KSPI 012052Z 23006KT 10SM FEW065 SCT090 34/21 A3002 RMK AO2 SLP161 T03390206 56012
Pressure 30.01 in
Visibility 10.0 miles
Clouds Few 6500 ft
Scattered Clouds 9000 ft
Heat Index 100 °F
Dew Point 73 °F
Humidity 54%
Rainfall 0.00 in
Snow Depth Not available.
UV 4 out of 12
Pollen 10.70 out of 12
Air Quality Not available.
Flu Activity Not available.
METAR KSPI 012052Z 23006KT 10SM FEW065 SCT090 34/21 A3002 RMK AO2 SLP161 T03390206 56012

10-Day Weather Forecast

×

Almanac

Astronomy

Sep. 01, 2015 Rise Set
Actual Time
Civil Twilight
Nautical Twilight
Astronomical Twilight
Moon
Length of Visible Light
Length of Day
Tomorrow will be .
, % of the Moon is Illuminated

Today's Extremes

State Highs State Lows

Community

WunderPhotos

Upload Photos

1,851,616 photos uploaded!

WunderBlogs® & News

Nearby

Air Quality

  Air Quality AQ Index Pollutant
Not available.

Snow Depth

Station Depth Elevation

Earthquake Activity

City Distance Mag. Time & Date
Minimum magnitude displayed is 2.5.

Coastal Water Temperatures

Place Temperature

Stations

Nearby Weather Stations

Station Location Temp. Windchill Dew Point Humidity Wind Precip. Elev Updated Type